BEL8GQ EBBR-EPKK
Flight info
| Callsign | BEL8GQ |
|---|---|
| Flight time | 1h 33m |
| Altitude | 39000 |
| Route | SOPOK Y863 ROPUV L607 EMGOD DCT BOMBI L984 KULOK DCT OKG DCT PADKA |
| Aircraft | A319/M-DE3FGIJ1LORVWY/H |
Departure
| Time | 2026-05-04 15:35 |
|---|---|
| Airport | Brussels Airport (EBBR) |
Arrival
| Time | 2026-05-04 17:08 |
|---|---|
| Airport | Kraków John Paul II International Airport (EPKK) |
| Time | Latitude | Longitude | Altitude | Speed | Heading |
|---|---|---|---|---|---|
| 2026-05-04 15:05 | 50.90279 | 4.48148 | 121 ft | 0 kts | 155° |
| 2026-05-04 15:27 | 50.90281 | 4.48146 | 117 ft | 2 kts | 155° |
| 2026-05-04 15:27 | 50.90317 | 4.48098 | 117 ft | 4 kts | 79° |
| 2026-05-04 15:28 | 50.90315 | 4.48088 | 117 ft | 0 kts | 65° |
| 2026-05-04 15:30 | 50.90316 | 4.48089 | 117 ft | 0 kts | 62° |
| 2026-05-04 15:30 | 50.90444 | 4.48109 | 121 ft | 14 kts | 63° |
| 2026-05-04 15:31 | 50.90533 | 4.48413 | 120 ft | 17 kts | 64° |
| 2026-05-04 15:31 | 50.90584 | 4.48580 | 119 ft | 17 kts | 65° |
| 2026-05-04 15:32 | 50.90716 | 4.49045 | 118 ft | 16 kts | 65° |
| 2026-05-04 15:32 | 50.90810 | 4.49373 | 122 ft | 16 kts | 65° |
| 2026-05-04 15:33 | 50.90905 | 4.49704 | 120 ft | 17 kts | 66° |
| 2026-05-04 15:34 | 50.91135 | 4.49926 | 119 ft | 6 kts | 335° |
| 2026-05-04 15:34 | 50.91139 | 4.49890 | 120 ft | 0 kts | 246° |
| 2026-05-04 15:34 | 50.91015 | 4.49458 | 119 ft | 83 kts | 245° |
| 2026-05-04 15:35 | 50.90224 | 4.46723 | 640 ft | 156 kts | 246° |
| 2026-05-04 15:35 | 50.89779 | 4.45156 | 1340 ft | 157 kts | 248° |
| 2026-05-04 15:35 | 50.89302 | 4.43575 | 2071 ft | 160 kts | 238° |
| 2026-05-04 15:36 | 50.87243 | 4.42681 | 3686 ft | 173 kts | 160° |
| 2026-05-04 15:36 | 50.86240 | 4.43871 | 4146 ft | 193 kts | 130° |
| 2026-05-04 15:36 | 50.85306 | 4.45581 | 4497 ft | 219 kts | 130° |
| 2026-05-04 15:37 | 50.84256 | 4.47502 | 4938 ft | 243 kts | 130° |
| 2026-05-04 15:37 | 50.83090 | 4.49618 | 5415 ft | 266 kts | 131° |
| 2026-05-04 15:37 | 50.81847 | 4.51858 | 6228 ft | 275 kts | 131° |
| 2026-05-04 15:37 | 50.80573 | 4.54147 | 7130 ft | 279 kts | 131° |
| 2026-05-04 15:38 | 50.79278 | 4.56464 | 8072 ft | 282 kts | 131° |
| 2026-05-04 15:38 | 50.77969 | 4.58794 | 9028 ft | 285 kts | 131° |
| 2026-05-04 15:38 | 50.76642 | 4.61153 | 9962 ft | 289 kts | 131° |
| 2026-05-04 15:38 | 50.75273 | 4.63585 | 10463 ft | 308 kts | 131° |
| 2026-05-04 15:39 | 50.73798 | 4.66210 | 10824 ft | 329 kts | 131° |
| 2026-05-04 15:39 | 50.72264 | 4.68962 | 11489 ft | 338 kts | 130° |
| 2026-05-04 15:39 | 50.69397 | 4.74919 | 13104 ft | 346 kts | 116° |
| 2026-05-04 15:40 | 50.68501 | 4.78451 | 13971 ft | 349 kts | 106° |
| 2026-05-04 15:40 | 50.67793 | 4.82129 | 14733 ft | 352 kts | 107° |
| 2026-05-04 15:40 | 50.67070 | 4.85838 | 15481 ft | 355 kts | 107° |
| 2026-05-04 15:40 | 50.66335 | 4.89576 | 16204 ft | 359 kts | 108° |
| 2026-05-04 15:41 | 50.65587 | 4.93359 | 16990 ft | 364 kts | 108° |
| 2026-05-04 15:41 | 50.64828 | 4.97185 | 17777 ft | 369 kts | 108° |
| 2026-05-04 15:41 | 50.64059 | 5.01062 | 18473 ft | 373 kts | 108° |
| 2026-05-04 15:41 | 50.63280 | 5.04980 | 19064 ft | 376 kts | 109° |
| 2026-05-04 15:42 | 50.62498 | 5.08925 | 19652 ft | 380 kts | 109° |
| 2026-05-04 15:42 | 50.61708 | 5.12911 | 20214 ft | 383 kts | 109° |
| 2026-05-04 15:42 | 50.60917 | 5.16888 | 20767 ft | 387 kts | 110° |
| 2026-05-04 15:42 | 50.60096 | 5.21007 | 21323 ft | 391 kts | 110° |
| 2026-05-04 15:43 | 50.59554 | 5.23717 | 21707 ft | 394 kts | 110° |
| 2026-05-04 15:43 | 50.58656 | 5.27808 | 22250 ft | 396 kts | 118° |
| 2026-05-04 15:43 | 50.57038 | 5.31241 | 22790 ft | 392 kts | 140° |
| 2026-05-04 15:43 | 50.54321 | 5.35026 | 23553 ft | 396 kts | 141° |
| 2026-05-04 15:44 | 50.52261 | 5.37921 | 24084 ft | 399 kts | 141° |
| 2026-05-04 15:44 | 50.50204 | 5.40874 | 24581 ft | 402 kts | 141° |
| 2026-05-04 15:44 | 50.48152 | 5.43871 | 25082 ft | 404 kts | 140° |
| 2026-05-04 15:44 | 50.46101 | 5.46899 | 25541 ft | 406 kts | 140° |
| 2026-05-04 15:45 | 50.44709 | 5.48960 | 25850 ft | 407 kts | 140° |
| 2026-05-04 15:45 | 50.42645 | 5.52013 | 26295 ft | 409 kts | 140° |
| 2026-05-04 15:45 | 50.40595 | 5.55041 | 26728 ft | 411 kts | 140° |
| 2026-05-04 15:45 | 50.38503 | 5.58121 | 27145 ft | 414 kts | 141° |
| 2026-05-04 15:46 | 50.36392 | 5.61213 | 27560 ft | 417 kts | 141° |
| 2026-05-04 15:46 | 50.34263 | 5.64315 | 27980 ft | 419 kts | 141° |
| 2026-05-04 15:46 | 50.32121 | 5.67427 | 28426 ft | 422 kts | 141° |
| 2026-05-04 15:46 | 50.29967 | 5.70565 | 28837 ft | 425 kts | 140° |
| 2026-05-04 15:47 | 50.28011 | 5.74076 | 29240 ft | 433 kts | 129° |
| 2026-05-04 15:47 | 50.26487 | 5.78178 | 29647 ft | 441 kts | 119° |
| 2026-05-04 15:47 | 50.25467 | 5.82743 | 30045 ft | 450 kts | 108° |
| 2026-05-04 15:47 | 50.25016 | 5.87628 | 30370 ft | 459 kts | 97° |
| 2026-05-04 15:48 | 50.24898 | 5.92628 | 30678 ft | 462 kts | 96° |
| 2026-05-04 15:48 | 50.24777 | 5.97660 | 30992 ft | 464 kts | 97° |
| 2026-05-04 15:48 | 50.24515 | 6.07786 | 31538 ft | 469 kts | 97° |
| 2026-05-04 15:49 | 50.24378 | 6.12879 | 31950 ft | 469 kts | 97° |
| 2026-05-04 15:49 | 50.24240 | 6.17957 | 32378 ft | 468 kts | 97° |
| 2026-05-04 15:49 | 50.24098 | 6.23029 | 32814 ft | 466 kts | 97° |
| 2026-05-04 15:49 | 50.23951 | 6.28081 | 33253 ft | 465 kts | 97° |
| 2026-05-04 15:50 | 50.23803 | 6.33123 | 33722 ft | 464 kts | 97° |
| 2026-05-04 15:50 | 50.23656 | 6.38162 | 34163 ft | 463 kts | 97° |
| 2026-05-04 15:50 | 50.23508 | 6.43179 | 34533 ft | 463 kts | 97° |
| 2026-05-04 15:50 | 50.23360 | 6.48201 | 34830 ft | 463 kts | 97° |
| 2026-05-04 15:51 | 50.23209 | 6.53232 | 35125 ft | 464 kts | 97° |
| 2026-05-04 15:51 | 50.23056 | 6.58273 | 35435 ft | 464 kts | 97° |
| 2026-05-04 15:51 | 50.22900 | 6.63309 | 35740 ft | 465 kts | 97° |
| 2026-05-04 15:51 | 50.22743 | 6.68350 | 36046 ft | 465 kts | 97° |
| 2026-05-04 15:52 | 50.22583 | 6.73385 | 36396 ft | 465 kts | 97° |
| 2026-05-04 15:52 | 50.22418 | 6.78422 | 36789 ft | 464 kts | 96° |
| 2026-05-04 15:52 | 50.22249 | 6.83456 | 37171 ft | 464 kts | 96° |
| 2026-05-04 15:52 | 50.22059 | 6.88492 | 37541 ft | 464 kts | 97° |
| 2026-05-04 15:53 | 50.21821 | 6.93514 | 37864 ft | 464 kts | 98° |
| 2026-05-04 15:53 | 50.21547 | 6.98544 | 38103 ft | 465 kts | 98° |
| 2026-05-04 15:53 | 50.21259 | 7.03567 | 38330 ft | 465 kts | 98° |
| 2026-05-04 15:53 | 50.20967 | 7.08597 | 38563 ft | 465 kts | 98° |
| 2026-05-04 15:54 | 50.20684 | 7.13630 | 38765 ft | 466 kts | 98° |
| 2026-05-04 15:54 | 50.20409 | 7.18668 | 38933 ft | 466 kts | 98° |
| 2026-05-04 15:54 | 50.19863 | 7.28757 | 39002 ft | 466 kts | 98° |
| 2026-05-04 15:55 | 50.19781 | 7.38896 | 38994 ft | 470 kts | 90° |
| 2026-05-04 15:55 | 50.20021 | 7.49096 | 38997 ft | 470 kts | 91° |
| 2026-05-04 15:56 | 50.20234 | 7.59232 | 38993 ft | 470 kts | 91° |
| 2026-05-04 15:56 | 50.20438 | 7.69435 | 38996 ft | 470 kts | 91° |
| 2026-05-04 15:57 | 50.20638 | 7.79707 | 38996 ft | 471 kts | 91° |
| 2026-05-04 15:57 | 50.20827 | 7.89858 | 38992 ft | 471 kts | 91° |
| 2026-05-04 15:58 | 50.21007 | 8.00078 | 38999 ft | 471 kts | 91° |
| 2026-05-04 15:58 | 50.21181 | 8.10299 | 39004 ft | 471 kts | 91° |
| 2026-05-04 15:59 | 50.21346 | 8.20517 | 39008 ft | 471 kts | 91° |
| 2026-05-04 15:59 | 50.21501 | 8.30728 | 38994 ft | 471 kts | 91° |
| 2026-05-04 16:00 | 50.21647 | 8.40946 | 39001 ft | 470 kts | 91° |
| 2026-05-04 16:00 | 50.21782 | 8.51159 | 38987 ft | 470 kts | 91° |
| 2026-05-04 16:01 | 50.21911 | 8.61361 | 38991 ft | 470 kts | 91° |
| 2026-05-04 16:01 | 50.22029 | 8.71566 | 38990 ft | 470 kts | 91° |
| 2026-05-04 16:02 | 50.22138 | 8.81764 | 38989 ft | 470 kts | 91° |
| 2026-05-04 16:03 | 50.22288 | 8.97054 | 38991 ft | 469 kts | 92° |
| 2026-05-04 16:03 | 50.22379 | 9.07251 | 38991 ft | 469 kts | 92° |
| 2026-05-04 16:04 | 50.22461 | 9.17446 | 38993 ft | 469 kts | 92° |
| 2026-05-04 16:04 | 50.22560 | 9.32720 | 38993 ft | 468 kts | 92° |
| 2026-05-04 16:05 | 50.22613 | 9.42884 | 38995 ft | 468 kts | 92° |
| 2026-05-04 16:06 | 50.22683 | 9.58115 | 38994 ft | 467 kts | 92° |
| 2026-05-04 16:07 | 50.22746 | 9.78400 | 38976 ft | 467 kts | 92° |
| 2026-05-04 16:08 | 50.22764 | 9.98660 | 38989 ft | 469 kts | 92° |
| 2026-05-04 16:09 | 50.22751 | 10.24126 | 38981 ft | 469 kts | 92° |
| 2026-05-04 16:10 | 50.22696 | 10.44521 | 38988 ft | 470 kts | 92° |
| 2026-05-04 16:11 | 50.22607 | 10.64928 | 38983 ft | 470 kts | 92° |
| 2026-05-04 16:12 | 50.22406 | 10.95506 | 38995 ft | 469 kts | 93° |
| 2026-05-04 16:13 | 50.22222 | 11.15859 | 38986 ft | 468 kts | 93° |
| 2026-05-04 16:14 | 50.22006 | 11.36190 | 39001 ft | 468 kts | 93° |
| 2026-05-04 16:16 | 50.21692 | 11.61575 | 38978 ft | 468 kts | 93° |
| 2026-05-04 16:17 | 50.21310 | 11.86910 | 38982 ft | 468 kts | 94° |
| 2026-05-04 16:18 | 50.20971 | 12.07240 | 38965 ft | 469 kts | 93° |
| 2026-05-04 16:19 | 50.20496 | 12.32712 | 38970 ft | 470 kts | 94° |
| 2026-05-04 16:20 | 50.19975 | 12.58223 | 38981 ft | 471 kts | 93° |
| 2026-05-04 16:22 | 50.19385 | 12.83737 | 38990 ft | 470 kts | 94° |
| 2026-05-04 16:23 | 50.18603 | 13.14290 | 38982 ft | 469 kts | 94° |
| 2026-05-04 16:25 | 50.17743 | 13.44658 | 38978 ft | 468 kts | 94° |
| 2026-05-04 16:26 | 50.16660 | 13.80093 | 38975 ft | 467 kts | 94° |
| 2026-05-04 16:28 | 50.15808 | 14.05393 | 38964 ft | 468 kts | 94° |
| 2026-05-04 16:29 | 50.14520 | 14.40871 | 38969 ft | 469 kts | 94° |
| 2026-05-04 16:31 | 50.13534 | 14.66221 | 38988 ft | 469 kts | 94° |
| 2026-05-04 16:32 | 50.12360 | 14.94922 | 38979 ft | 469 kts | 94° |
| 2026-05-04 16:33 | 50.11484 | 15.15184 | 38982 ft | 469 kts | 95° |
| 2026-05-04 16:34 | 50.10800 | 15.30384 | 38976 ft | 469 kts | 95° |
| 2026-05-04 16:35 | 50.09385 | 15.60751 | 38967 ft | 469 kts | 95° |
| 2026-05-04 16:36 | 50.08648 | 15.75927 | 38960 ft | 468 kts | 95° |
| 2026-05-04 16:37 | 50.07882 | 15.91065 | 38973 ft | 467 kts | 95° |
| 2026-05-04 16:38 | 50.06844 | 16.11201 | 38995 ft | 466 kts | 95° |
| 2026-05-04 16:39 | 50.05509 | 16.36319 | 39005 ft | 465 kts | 95° |
| 2026-05-04 16:40 | 50.04391 | 16.56367 | 39005 ft | 465 kts | 95° |
| 2026-05-04 16:41 | 50.02954 | 16.81403 | 39005 ft | 465 kts | 95° |
| 2026-05-04 16:43 | 50.01454 | 17.06424 | 39008 ft | 465 kts | 95° |
| 2026-05-04 16:43 | 50.00517 | 17.21427 | 39012 ft | 464 kts | 95° |
| 2026-05-04 16:45 | 49.98639 | 17.51341 | 39005 ft | 463 kts | 96° |
| 2026-05-04 16:46 | 49.97003 | 17.76140 | 38995 ft | 461 kts | 96° |
| 2026-05-04 16:47 | 49.96335 | 17.86028 | 37855 ft | 460 kts | 96° |
| 2026-05-04 16:47 | 49.95660 | 17.95908 | 36436 ft | 461 kts | 96° |
| 2026-05-04 16:48 | 49.94643 | 18.10786 | 34288 ft | 463 kts | 96° |
| 2026-05-04 16:48 | 49.94296 | 18.15758 | 33568 ft | 463 kts | 96° |
| 2026-05-04 16:49 | 49.93587 | 18.25602 | 32410 ft | 454 kts | 96° |
| 2026-05-04 16:49 | 49.93034 | 18.35273 | 31294 ft | 446 kts | 92° |
| 2026-05-04 16:50 | 49.92804 | 18.44813 | 30230 ft | 439 kts | 91° |
| 2026-05-04 16:50 | 49.92611 | 18.54197 | 29069 ft | 431 kts | 92° |
| 2026-05-04 16:51 | 49.92337 | 18.63406 | 27950 ft | 424 kts | 93° |
| 2026-05-04 16:51 | 49.92183 | 18.67950 | 27418 ft | 420 kts | 93° |
| 2026-05-04 16:51 | 49.91872 | 18.76927 | 26386 ft | 413 kts | 93° |
| 2026-05-04 16:52 | 49.92048 | 18.85751 | 25354 ft | 406 kts | 85° |
| 2026-05-04 16:52 | 49.92269 | 18.90093 | 24768 ft | 402 kts | 85° |
| 2026-05-04 16:53 | 49.92700 | 18.98678 | 23568 ft | 396 kts | 85° |
| 2026-05-04 16:53 | 49.93308 | 19.11330 | 21548 ft | 387 kts | 86° |
| 2026-05-04 16:54 | 49.93485 | 19.15481 | 20914 ft | 384 kts | 86° |
| 2026-05-04 16:55 | 49.94138 | 19.31720 | 18569 ft | 371 kts | 88° |
| 2026-05-04 16:55 | 49.94459 | 19.39674 | 17536 ft | 367 kts | 88° |
| 2026-05-04 16:56 | 49.94773 | 19.47500 | 16745 ft | 360 kts | 87° |
| 2026-05-04 16:56 | 49.96195 | 19.58816 | 15598 ft | 352 kts | 79° |
| 2026-05-04 16:57 | 49.96698 | 19.62533 | 15231 ft | 350 kts | 80° |
| 2026-05-04 16:57 | 49.97686 | 19.69876 | 14477 ft | 345 kts | 80° |
| 2026-05-04 16:58 | 49.99149 | 19.80765 | 13236 ft | 343 kts | 80° |
| 2026-05-04 16:58 | 49.99637 | 19.84374 | 12854 ft | 340 kts | 80° |
| 2026-05-04 16:59 | 50.00591 | 19.91430 | 12033 ft | 327 kts | 80° |
| 2026-05-04 17:00 | 50.02395 | 20.04776 | 10456 ft | 306 kts | 80° |
| 2026-05-04 17:00 | 50.03673 | 20.14179 | 9264 ft | 284 kts | 80° |
| 2026-05-04 17:01 | 50.04526 | 20.20063 | 8442 ft | 270 kts | 69° |
| 2026-05-04 17:01 | 50.07166 | 20.23510 | 7650 ft | 250 kts | 6° |
| 2026-05-04 17:02 | 50.10446 | 20.22852 | 6886 ft | 232 kts | 345° |
| 2026-05-04 17:02 | 50.12913 | 20.20078 | 6135 ft | 224 kts | 289° |
| 2026-05-04 17:03 | 50.13145 | 20.17737 | 5810 ft | 219 kts | 261° |
| 2026-05-04 17:03 | 50.12856 | 20.15424 | 5491 ft | 217 kts | 256° |
| 2026-05-04 17:03 | 50.12225 | 20.10817 | 4854 ft | 217 kts | 257° |
| 2026-05-04 17:04 | 50.11569 | 20.06220 | 4228 ft | 216 kts | 256° |
| 2026-05-04 17:04 | 50.10898 | 20.01686 | 3660 ft | 214 kts | 255° |
| 2026-05-04 17:05 | 50.10254 | 19.97180 | 3029 ft | 211 kts | 256° |
| 2026-05-04 17:05 | 50.09671 | 19.92829 | 2489 ft | 200 kts | 255° |
| 2026-05-04 17:06 | 50.09211 | 19.88847 | 2070 ft | 174 kts | 257° |
| 2026-05-04 17:06 | 50.08984 | 19.87114 | 1879 ft | 151 kts | 255° |
| 2026-05-04 17:07 | 50.08549 | 19.84130 | 1352 ft | 136 kts | 257° |
| 2026-05-04 17:07 | 50.08423 | 19.83176 | 1215 ft | 137 kts | 258° |
| 2026-05-04 17:07 | 50.08160 | 19.81300 | 1002 ft | 130 kts | 258° |
| 2026-05-04 17:07 | 50.07975 | 19.79949 | 831 ft | 125 kts | 259° |
| 2026-05-04 17:08 | 50.07814 | 19.78775 | 802 ft | 90 kts | 258° |
| 2026-05-04 17:08 | 50.07669 | 19.77734 | 798 ft | 31 kts | 258° |
| 2026-05-04 17:08 | 50.07624 | 19.77420 | 799 ft | 29 kts | 257° |
| 2026-05-04 17:09 | 50.07587 | 19.77141 | 803 ft | 28 kts | 258° |
| 2026-05-04 17:09 | 50.07548 | 19.76894 | 802 ft | 16 kts | 244° |
| 2026-05-04 17:09 | 50.07449 | 19.76855 | 800 ft | 17 kts | 167° |
| 2026-05-04 17:10 | 50.07322 | 19.77065 | 800 ft | 17 kts | 78° |
| 2026-05-04 17:10 | 50.07403 | 19.77642 | 800 ft | 19 kts | 77° |
| 2026-05-04 17:11 | 50.07432 | 19.77847 | 800 ft | 20 kts | 78° |
| 2026-05-04 17:11 | 50.07460 | 19.78058 | 800 ft | 20 kts | 78° |
| 2026-05-04 17:11 | 50.07521 | 19.78496 | 800 ft | 21 kts | 78° |
| 2026-05-04 17:12 | 50.07553 | 19.78723 | 800 ft | 22 kts | 77° |
| 2026-05-04 17:12 | 50.07618 | 19.79192 | 800 ft | 23 kts | 78° |
| 2026-05-04 17:13 | 50.07699 | 19.79852 | 800 ft | 13 kts | 113° |
| 2026-05-04 17:14 | 50.07499 | 19.79936 | 800 ft | 9 kts | 168° |
| 2026-05-04 17:14 | 50.07440 | 19.79958 | 800 ft | 9 kts | 167° |
| 2026-05-04 17:14 | 50.07377 | 19.79866 | 800 ft | 7 kts | 257° |
| 2026-05-04 17:15 | 50.07365 | 19.79798 | 800 ft | 6 kts | 246° |
| 2026-05-04 17:15 | 50.07324 | 19.79786 | 800 ft | 3 kts | 167° |
| 2026-05-04 17:16 | 50.07303 | 19.79793 | 800 ft | 0 kts | 168° |
| 2026-05-04 17:16 | 50.07284 | 19.79778 | 800 ft | 3 kts | 197° |
| 2026-05-04 17:17 | 50.07275 | 19.79779 | 800 ft | 1 kts | 183° |
| 2026-05-04 17:17 | 50.07271 | 19.79780 | 800 ft | 0 kts | 170° |